OIMB  Birjand Airport

Add Bookmark

Birjand, Iran

Status
Operational
Latitude Longitude
32° 53' 53" N 59° 15' 57" E
32.898056 59.266111
Local (DST + 5) UTC (GMT + 4)
Jul 31, 2014 10:03 Jul 31, 2014 17:33
Sunrise-Sunset Local UTC
Begin Civil Twilight 05:17 00:47
Sunrise 05:44 01:14
Sunset 07:34 15:04
End Civil Twilight 08:01 15:31

Current Weather

METAR Observed MVFR
OIMB 311700Z 12012KT 8000 SKC 28/M06 Q1012 Thu, Jul 31, 2014 @ 17:00 UTC
(33 Minutes ago)
Marginal Visual Flight Rules

Decoded METAR

Wind Visibility Clouds Conditions
120° at 12 knots (22 kph) 8000 meters
  • Clear skies
  • No significant weather
Temperatures Readings Precipitation
Current Temp 28°C (82°F)
Dewpoint -6°C (21°F)
Humidity 10%
Altimeter 29.88"Hg
Sea Level Pressure 1012mb
Field Elevation 4891.73'
None Recorded

Additional weather within a 185.2km radius of OIMB

Map ICAO Location
OIMD 170.2km N (342°)

24 Hour Weather History

Loading
-

24 Hour Weather Graphs

Loading
-

CheckWX.com is intended as a tool to help pilots better visualize weather data. It is not intended as a substitute for an official weather briefing obtained from a Flight Service Station. CheckWX.com does not meet the FAA requirements for an official pre-flight weather briefing. Therefore, it's important that pilots still call and obtain an official FSS pre-flight weather briefing.